Time;durP1;ratioP1;P1;durP2;ratioP2;P2;SDS_P1;SDS_P2;PMS_P1;PMS_P2;Temp;Humidity;BMP_temperature;BMP_pressure;BME280_temperature;BME280_humidity;BME280_pressure;Samples;Min_cycle;Max_cycle;Signal;HPM_P1;HPM_P2
2022/09/22 00:01:34;;;;;;;6.28;4.22;;;11.60;99.90;;;;;;4992928;28;20698;-77
2022/09/22 00:04:04;;;;;;;9.18;4.13;;;11.60;99.90;;;;;;4993032;28;20649;-78
2022/09/22 00:06:33;;;;;;;10.02;4.18;;;11.50;99.90;;;;;;4992934;28;20643;-77
2022/09/22 00:09:00;;;;;;;3.83;3.30;;;11.50;99.90;;;;;;4992512;28;20663;-78
2022/09/22 00:11:32;;;;;;;5.35;3.60;;;11.60;99.90;;;;;;4992901;28;20195;-77
2022/09/22 00:14:08;;;;;;;7.00;3.72;;;11.50;99.90;;;;;;4991187;28;20201;-78
2022/09/22 00:16:43;;;;;;;7.43;3.33;;;11.60;99.90;;;;;;4991427;28;20654;-77
2022/09/22 00:19:18;;;;;;;3.28;2.88;;;11.70;99.90;;;;;;4992618;28;20164;-77
2022/09/22 00:21:45;;;;;;;4.68;3.25;;;11.70;99.90;;;;;;5008034;28;20164;-77
2022/09/22 00:24:10;;;;;;;6.50;3.50;;;11.50;99.90;;;;;;4992467;28;20181;-77
2022/09/22 00:26:37;;;;;;;5.32;3.90;;;11.60;99.90;;;;;;4992625;28;20247;-78
2022/09/22 00:29:06;;;;;;;6.90;3.25;;;11.60;99.90;;;;;;4992641;28;20171;-77
2022/09/22 00:31:32;;;;;;;7.88;3.97;;;11.70;99.90;;;;;;4992174;28;20169;-77
2022/09/22 00:33:58;;;;;;;6.18;4.32;;;11.50;99.90;;;;;;4992586;28;20299;-78
2022/09/22 00:36:26;;;;;;;5.53;3.53;;;11.50;99.90;;;;;;4991333;28;20189;-77
2022/09/22 00:38:53;;;;;;;5.90;3.45;;;11.50;99.90;;;;;;4992673;28;20256;-78
2022/09/22 00:41:24;;;;;;;12.25;3.65;;;11.60;99.90;;;;;;4992545;28;20169;-77
2022/09/22 00:44:25;;;;;;;6.13;3.10;;;11.50;99.90;;;;;;4992437;28;20177;-78
2022/09/22 00:47:06;;;;;;;8.52;3.90;;;11.40;99.90;;;;;;4992239;28;20179;-77
2022/09/22 00:49:47;;;;;;;8.48;3.75;;;11.50;99.90;;;;;;4992508;28;20244;-77
2022/09/22 00:52:17;;;;;;;7.30;3.53;;;11.40;99.90;;;;;;4992430;28;20169;-80
2022/09/22 00:54:43;;;;;;;5.40;3.42;;;11.30;99.90;;;;;;4992212;28;20271;-77
2022/09/22 00:57:19;;;;;;;4.72;3.75;;;11.20;99.90;;;;;;4992383;28;20586;-77
2022/09/22 00:59:46;;;;;;;7.97;3.40;;;11.40;99.90;;;;;;4992522;28;20236;-77
2022/09/22 01:02:12;;;;;;;4.25;3.63;;;11.20;99.90;;;;;;4992554;28;20189;-81
2022/09/22 01:04:40;;;;;;;3.95;3.53;;;11.30;99.90;;;;;;4992732;28;20232;-77
2022/09/22 01:07:06;;;;;;;6.18;3.42;;;11.30;99.90;;;;;;4992549;28;20587;-79
2022/09/22 01:09:32;;;;;;;10.27;3.63;;;11.30;99.90;;;;;;4992348;28;20256;-77
2022/09/22 01:12:00;;;;;;;11.38;4.53;;;11.40;99.90;;;;;;4999078;28;20169;-77
2022/09/22 01:14:42;;;;;;;4.38;3.28;;;11.30;99.90;;;;;;5005013;28;20209;-77
2022/09/22 01:17:26;;;;;;;9.85;3.70;;;11.30;99.90;;;;;;5015744;28;20180;-78
2022/09/22 01:20:14;;;;;;;6.82;3.90;;;11.40;99.90;;;;;;5003512;28;20289;-77
2022/09/22 01:23:14;;;;;;;8.10;3.67;;;11.30;99.90;;;;;;4995504;28;20250;-77
2022/09/22 01:25:58;;;;;;;4.78;3.22;;;11.30;99.90;;;;;;4995644;28;20165;-79
2022/09/22 01:29:06;;;;;;;6.53;3.63;;;11.30;99.90;;;;;;4995471;28;20510;-78
2022/09/22 01:31:44;;;;;;;4.03;3.63;;;11.40;99.90;;;;;;4995535;28;20181;-78
2022/09/22 01:34:10;;;;;;;9.73;3.65;;;11.10;99.90;;;;;;4995071;28;20724;-78
2022/09/22 01:36:51;;;;;;;4.90;3.28;;;11.00;99.90;;;;;;4995504;28;20185;-77
2022/09/22 01:39:20;;;;;;;3.17;2.92;;;10.90;99.90;;;;;;4995403;28;20165;-80
2022/09/22 01:41:58;;;;;;;5.47;3.42;;;10.80;99.90;;;;;;4995407;28;20169;-78
2022/09/22 01:44:46;;;;;;;13.38;4.00;;;10.80;99.90;;;;;;4995193;28;20197;-77
2022/09/22 01:47:24;;;;;;;11.57;3.67;;;10.90;99.90;;;;;;4995586;28;20173;-77
2022/09/22 01:49:55;;;;;;;5.55;3.33;;;10.90;99.90;;;;;;4996384;28;20169;-77
2022/09/22 01:52:27;;;;;;;5.78;3.03;;;10.80;99.90;;;;;;4995966;28;20162;-88
2022/09/22 01:55:01;;;;;;;3.90;3.50;;;10.80;99.90;;;;;;4994760;28;20201;-81
2022/09/22 01:58:11;;;;;;;4.93;3.33;;;10.90;99.90;;;;;;4993590;28;20176;-77
2022/09/22 02:00:40;;;;;;;4.75;3.25;;;11.00;99.90;;;;;;4973397;28;20541;-77
2022/09/22 02:03:17;;;;;;;8.18;3.72;;;11.00;99.90;;;;;;4991843;28;20272;-77
2022/09/22 02:05:49;;;;;;;7.43;3.58;;;11.00;99.90;;;;;;4994726;28;20173;-78
2022/09/22 02:08:22;;;;;;;6.65;3.67;;;10.90;99.90;;;;;;4994989;28;20180;-77
2022/09/22 02:10:49;;;;;;;11.05;4.47;;;11.10;99.90;;;;;;4994495;28;20180;-77
2022/09/22 02:13:14;;;;;;;6.25;4.50;;;11.00;99.90;;;;;;4994619;28;20172;-77
2022/09/22 02:15:59;;;;;;;6.93;4.30;;;11.10;99.90;;;;;;4994719;28;20205;-77
2022/09/22 02:18:30;;;;;;;4.50;4.03;;;11.00;99.90;;;;;;4994580;28;20197;-77
2022/09/22 02:20:57;;;;;;;5.82;4.63;;;11.00;99.90;;;;;;4992992;28;20177;-77
2022/09/22 02:23:23;;;;;;;18.10;6.18;;;11.00;99.90;;;;;;4994458;28;20212;-77
2022/09/22 02:25:49;;;;;;;6.05;5.35;;;10.90;99.90;;;;;;4994568;28;20197;-80
2022/09/22 02:28:19;;;;;;;6.78;5.35;;;11.10;99.90;;;;;;4994040;28;20185;-78
2022/09/22 02:30:47;;;;;;;6.88;4.70;;;11.10;99.90;;;;;;4993668;28;20221;-77
2022/09/22 02:33:13;;;;;;;8.40;5.18;;;10.90;99.90;;;;;;4994086;28;20223;-78
2022/09/22 02:35:44;;;;;;;13.15;5.20;;;10.90;99.90;;;;;;4994271;28;20671;-81
2022/09/22 02:38:19;;;;;;;9.02;4.90;;;10.80;99.90;;;;;;4994362;28;20169;-78
2022/09/22 02:41:05;;;;;;;10.05;4.75;;;10.70;99.90;;;;;;4993805;28;20169;-78
2022/09/22 02:43:47;;;;;;;9.52;4.10;;;10.80;99.90;;;;;;4993922;28;20189;-78
2022/09/22 02:46:28;;;;;;;7.28;4.30;;;10.90;99.90;;;;;;4993829;28;20169;-78
2022/09/22 02:48:59;;;;;;;4.97;4.20;;;10.70;99.90;;;;;;4993832;28;20215;-78
2022/09/22 02:51:26;;;;;;;14.88;4.40;;;10.80;99.90;;;;;;4993929;28;20232;-78
2022/09/22 02:53:52;;;;;;;5.18;4.45;;;10.70;99.90;;;;;;4992789;28;20555;-84
2022/09/22 02:56:17;;;;;;;6.30;4.53;;;10.80;99.90;;;;;;4993940;28;20169;-84
2022/09/22 02:58:43;;;;;;;5.20;4.45;;;10.70;99.90;;;;;;4993480;28;20201;-79
2022/09/22 03:01:08;;;;;;;13.15;4.10;;;10.60;99.90;;;;;;4994145;28;20173;-86
2022/09/22 03:03:34;;;;;;;5.75;4.38;;;10.50;99.90;;;;;;4993770;28;20271;-78
2022/09/22 03:06:00;;;;;;;7.90;4.50;;;10.40;99.90;;;;;;4993703;28;20165;-78
2022/09/22 03:08:26;;;;;;;6.30;4.63;;;10.50;99.90;;;;;;4993885;28;20230;-78
2022/09/22 03:10:51;;;;;;;7.75;4.70;;;10.40;99.90;;;;;;4993789;28;20700;-78
2022/09/22 03:13:17;;;;;;;11.73;5.22;;;10.40;99.90;;;;;;4992506;28;20609;-78
2022/09/22 03:15:43;;;;;;;7.05;5.20;;;10.50;99.90;;;;;;4993752;28;20216;-79
2022/09/22 03:18:09;;;;;;;7.32;5.13;;;10.60;99.90;;;;;;4993539;28;20168;-80
2022/09/22 03:20:34;;;;;;;8.90;5.78;;;10.50;99.90;;;;;;4993444;28;20543;-79
2022/09/22 03:23:00;;;;;;;9.18;4.78;;;10.40;99.90;;;;;;4993322;28;20249;-78
2022/09/22 03:25:25;;;;;;;11.30;6.00;;;10.40;99.90;;;;;;4993869;28;20193;-78
2022/09/22 03:27:51;;;;;;;10.07;4.85;;;10.50;99.90;;;;;;4998459;28;20173;-78
2022/09/22 03:30:17;;;;;;;6.82;5.20;;;10.70;99.90;;;;;;5006540;28;20185;-79
2022/09/22 03:32:42;;;;;;;11.35;5.40;;;10.80;99.90;;;;;;5015494;28;20229;-79
2022/09/22 03:35:08;;;;;;;13.88;5.32;;;10.60;99.90;;;;;;4998352;28;20209;-78
2022/09/22 03:37:34;;;;;;;10.50;5.45;;;10.60;99.90;;;;;;4993090;28;20169;-79
2022/09/22 03:40:01;;;;;;;7.10;5.20;;;10.60;99.90;;;;;;4992982;28;20251;-77
2022/09/22 03:42:26;;;;;;;8.27;4.97;;;10.70;99.90;;;;;;4992317;28;20631;-78
2022/09/22 03:44:52;;;;;;;6.45;4.93;;;10.60;99.90;;;;;;4992768;28;20238;-78
2022/09/22 03:47:18;;;;;;;7.55;5.07;;;10.60;99.90;;;;;;4991410;28;20603;-78
2022/09/22 03:49:43;;;;;;;14.20;5.57;;;10.60;99.90;;;;;;4993435;28;20185;-79
2022/09/22 03:52:09;;;;;;;7.85;5.47;;;10.50;99.90;;;;;;4993087;28;20180;-79
2022/09/22 03:54:35;;;;;;;6.05;5.45;;;10.50;99.90;;;;;;4993124;28;20220;-79
2022/09/22 03:57:02;;;;;;;14.82;5.88;;;10.60;99.90;;;;;;4993618;28;20176;-78
2022/09/22 03:59:27;;;;;;;7.32;5.35;;;10.60;99.90;;;;;;4993410;28;20169;-80
2022/09/22 04:01:53;;;;;;;6.18;5.15;;;10.60;99.90;;;;;;4991710;28;20260;-84
2022/09/22 04:04:19;;;;;;;9.52;5.32;;;10.70;99.90;;;;;;4993295;28;20231;-78
2022/09/22 04:06:44;;;;;;;16.70;5.70;;;10.70;99.90;;;;;;4991998;28;20224;-78
2022/09/22 04:09:10;;;;;;;14.80;6.63;;;10.60;99.90;;;;;;4992688;28;20252;-77
2022/09/22 04:11:36;;;;;;;10.32;5.78;;;10.70;99.90;;;;;;4993229;28;20694;-87
2022/09/22 04:14:03;;;;;;;15.15;6.55;;;10.70;99.90;;;;;;4994909;28;20233;-81
2022/09/22 04:16:30;;;;;;;14.85;6.70;;;10.70;99.90;;;;;;4993838;28;20513;-83
2022/09/22 04:18:56;;;;;;;8.55;6.07;;;10.70;99.90;;;;;;4999768;28;20220;-79
2022/09/22 04:21:21;;;;;;;14.55;6.15;;;10.60;99.90;;;;;;4999391;28;20189;-82
2022/09/22 04:23:47;;;;;;;7.15;6.07;;;10.40;99.90;;;;;;4995810;28;20551;-78
2022/09/22 04:26:13;;;;;;;12.75;6.35;;;10.40;99.90;;;;;;4995082;28;20510;-78
2022/09/22 04:28:38;;;;;;;8.32;5.22;;;10.40;99.90;;;;;;4995885;28;20620;-78
2022/09/22 04:31:05;;;;;;;9.95;6.00;;;10.50;99.90;;;;;;4994221;28;20161;-78
2022/09/22 04:33:30;;;;;;;6.85;5.72;;;10.40;99.90;;;;;;4996455;28;20189;-78
2022/09/22 04:35:56;;;;;;;7.32;5.90;;;10.20;99.90;;;;;;4992792;28;20200;-78
2022/09/22 04:38:22;;;;;;;8.88;5.97;;;10.20;99.90;;;;;;4982979;28;20174;-78
2022/09/22 04:40:48;;;;;;;13.85;5.72;;;10.30;99.90;;;;;;4974355;28;20253;-83
2022/09/22 04:43:14;;;;;;;6.25;5.45;;;10.50;99.90;;;;;;4973899;28;20174;-92
2022/09/22 04:45:44;;;;;;;6.93;5.00;;;10.50;99.90;;;;;;4976689;28;20170;-88
2022/09/22 04:48:10;;;;;;;10.18;5.97;;;10.30;99.90;;;;;;4973855;28;20573;-79
2022/09/22 04:50:37;;;;;;;6.20;5.50;;;10.30;99.90;;;;;;4973736;28;20217;-79
2022/09/22 04:53:03;;;;;;;6.55;5.90;;;10.20;99.90;;;;;;4973366;28;20166;-79
2022/09/22 04:55:28;;;;;;;6.80;5.95;;;10.10;99.90;;;;;;4977195;28;20206;-89
2022/09/22 04:57:55;;;;;;;17.05;7.15;;;10.20;99.90;;;;;;4977278;28;20162;-79
2022/09/22 05:00:23;;;;;;;16.58;6.78;;;10.20;99.90;;;;;;4994891;28;20181;-79
2022/09/22 05:02:49;;;;;;;6.35;5.72;;;10.20;99.90;;;;;;4997212;28;20174;-81
2022/09/22 05:05:15;;;;;;;12.00;6.00;;;10.20;99.90;;;;;;4996239;28;20552;-81
2022/09/22 05:07:46;;;;;;;6.25;5.60;;;10.00;99.90;;;;;;4995493;28;20173;-78
2022/09/22 05:10:13;;;;;;;10.23;6.18;;;9.80;99.90;;;;;;4997793;28;20185;-79
2022/09/22 05:12:43;;;;;;;11.05;6.53;;;10.00;99.90;;;;;;4998285;28;20197;-78
2022/09/22 05:15:11;;;;;;;21.50;7.05;;;10.10;99.90;;;;;;4998267;28;20702;-81
2022/09/22 05:17:43;;;;;;;14.57;6.80;;;10.30;99.90;;;;;;5002227;28;20192;-79
2022/09/22 05:20:10;;;;;;;10.20;7.90;;;10.30;99.90;;;;;;5003485;28;20184;-78
2022/09/22 05:22:38;;;;;;;10.95;7.20;;;10.30;99.90;;;;;;4996386;28;20615;-82
2022/09/22 05:25:06;;;;;;;10.00;7.35;;;10.20;99.90;;;;;;4996719;28;20221;-86
2022/09/22 05:27:31;;;;;;;12.73;6.93;;;10.20;99.90;;;;;;4996901;28;20161;-79
2022/09/22 05:29:57;;;;;;;11.95;6.88;;;10.30;99.90;;;;;;4996782;28;20654;-79
2022/09/22 05:32:22;;;;;;;7.75;6.40;;;10.30;99.90;;;;;;4996946;28;20528;-87
2022/09/22 05:34:48;;;;;;;17.13;7.55;;;10.00;99.90;;;;;;4997027;28;20224;-84
2022/09/22 05:37:14;;;;;;;7.97;7.22;;;10.10;99.90;;;;;;4996819;28;20575;-83
2022/09/22 05:39:39;;;;;;;8.13;6.85;;;10.20;99.90;;;;;;4996945;28;20180;-83
2022/09/22 05:42:05;;;;;;;9.38;6.47;;;10.20;99.90;;;;;;4996650;28;20248;-80
2022/09/22 05:44:30;;;;;;;17.38;7.80;;;10.40;99.90;;;;;;4995810;28;20208;-82
2022/09/22 05:46:56;;;;;;;8.27;7.20;;;10.30;99.90;;;;;;5003643;28;20164;-78
2022/09/22 05:49:21;;;;;;;7.03;6.30;;;10.20;99.90;;;;;;5012324;28;20678;-83
2022/09/22 05:51:47;;;;;;;11.07;7.38;;;10.20;99.90;;;;;;5006028;28;20251;-79
2022/09/22 05:54:13;;;;;;;13.30;7.53;;;10.20;99.90;;;;;;4996852;28;20535;-78
2022/09/22 05:56:38;;;;;;;11.15;6.35;;;10.30;99.90;;;;;;4996004;28;20223;-88
2022/09/22 05:59:04;;;;;;;7.70;6.45;;;10.30;99.90;;;;;;4996628;28;20165;-79
2022/09/22 06:01:29;;;;;;;11.82;6.22;;;10.30;99.90;;;;;;4997921;28;20522;-87
2022/09/22 06:03:57;;;;;;;8.75;6.72;;;10.40;99.90;;;;;;4997990;28;20193;-83
2022/09/22 06:06:23;;;;;;;6.53;5.93;;;10.20;99.90;;;;;;4993259;28;20243;-79
2022/09/22 06:08:49;;;;;;;8.45;7.10;;;10.30;99.90;;;;;;4987106;28;20170;-85
2022/09/22 06:11:15;;;;;;;11.98;8.18;;;10.20;99.90;;;;;;4994921;28;20222;-84
2022/09/22 06:13:40;;;;;;;18.65;8.00;;;10.40;99.90;;;;;;4995170;28;20707;-87
2022/09/22 06:16:06;;;;;;;12.75;7.70;;;10.50;99.90;;;;;;5001594;28;20279;-80
2022/09/22 06:18:31;;;;;;;11.20;7.10;;;10.70;99.90;;;;;;5014705;28;20181;-81
2022/09/22 06:20:58;;;;;;;10.35;7.20;;;10.70;99.90;;;;;;5014646;28;20180;-81
2022/09/22 06:23:25;;;;;;;16.40;7.20;;;10.80;99.90;;;;;;5014565;28;20666;-82
2022/09/22 06:25:57;;;;;;;10.65;7.22;;;11.00;99.90;;;;;;5013996;28;20196;-87
2022/09/22 06:28:22;;;;;;;8.20;7.40;;;11.00;99.90;;;;;;5014025;28;20558;-82
2022/09/22 06:30:50;;;;;;;21.40;7.38;;;11.00;99.90;;;;;;5014546;28;20279;-82
2022/09/22 06:33:16;;;;;;;13.38;7.28;;;11.00;99.90;;;;;;5013645;28;20526;-82
2022/09/22 06:35:44;;;;;;;16.58;6.57;;;11.10;99.90;;;;;;5014756;28;20212;-83
2022/09/22 06:38:16;;;;;;;12.43;7.55;;;11.20;99.90;;;;;;5012896;28;20160;-81
2022/09/22 06:40:42;;;;;;;9.20;8.15;;;11.30;99.90;;;;;;5014894;28;20302;-80
2022/09/22 06:43:21;;;;;;;24.10;8.65;;;11.40;99.90;;;;;;5015055;28;20188;-80
2022/09/22 06:45:51;;;;;;;18.38;8.02;;;11.40;99.90;;;;;;5013845;28;20169;-88
2022/09/22 06:48:17;;;;;;;15.57;8.20;;;11.50;99.90;;;;;;4998847;28;20639;-84
2022/09/22 06:50:48;;;;;;;9.57;7.22;;;11.50;99.90;;;;;;5000661;28;20243;-83
2022/09/22 06:53:14;;;;;;;14.55;7.82;;;11.70;99.90;;;;;;5013712;28;20201;-88
2022/09/22 06:55:42;;;;;;;8.25;7.45;;;11.80;99.90;;;;;;5013738;28;20294;-87
2022/09/22 06:58:08;;;;;;;20.38;8.20;;;11.90;99.90;;;;;;5013818;28;20157;-90
2022/09/22 07:00:34;;;;;;;8.43;7.60;;;12.00;99.90;;;;;;5007368;28;20177;-87
2022/09/22 07:03:12;;;;;;;16.08;7.47;;;12.10;99.90;;;;;;4995370;28;20165;-88
2022/09/22 07:05:37;;;;;;;14.90;8.38;;;12.20;99.90;;;;;;4994634;28;20165;-87
2022/09/22 07:08:03;;;;;;;11.40;7.82;;;12.30;99.90;;;;;;4994791;28;20162;-84
2022/09/22 07:10:30;;;;;;;13.77;7.03;;;12.50;99.90;;;;;;4994723;28;20169;-86
2022/09/22 07:12:59;;;;;;;8.45;6.78;;;12.50;99.90;;;;;;5013967;28;20180;-82
2022/09/22 07:15:24;;;;;;;16.75;6.60;;;12.40;99.90;;;;;;5014160;28;20230;-84
2022/09/22 07:17:51;;;;;;;6.00;5.07;;;12.60;99.90;;;;;;5012836;28;20647;-89
2022/09/22 07:20:18;;;;;;;8.75;5.40;;;12.80;99.90;;;;;;5005024;28;20180;-90
2022/09/22 07:22:44;;;;;;;10.93;5.82;;;12.80;99.90;;;;;;4994714;28;20173;-93
2022/09/22 07:25:11;;;;;;;11.45;4.47;;;13.00;99.90;;;;;;4994426;28;20196;-91
2022/09/22 07:27:36;;;;;;;9.73;4.95;;;13.10;99.90;;;;;;4993723;28;20251;-86
2022/09/22 07:30:02;;;;;;;10.90;5.22;;;13.20;99.90;;;;;;4994478;28;20611;-85
2022/09/22 07:32:33;;;;;;;8.40;4.65;;;13.30;99.90;;;;;;4999156;28;20168;-92
2022/09/22 07:34:59;;;;;;;10.75;5.78;;;13.40;99.90;;;;;;5005940;28;20217;-93
2022/09/22 07:37:25;;;;;;;11.70;5.07;;;13.60;99.90;;;;;;4994060;28;20188;-88
2022/09/22 07:39:50;;;;;;;10.80;4.88;;;13.60;99.90;;;;;;4994862;28;20165;-93
2022/09/22 07:42:16;;;;;;;6.82;4.90;;;13.70;99.90;;;;;;4994755;28;20171;-82
2022/09/22 07:52:36;;;;;;;8.90;5.15;;;14.10;99.90;;;;;;5003449;28;20172;-80
2022/09/22 07:55:08;;;;;;;8.48;4.78;;;14.30;99.90;;;;;;5023502;28;20228;-96
2022/09/22 07:57:37;;;;;;;15.60;5.30;;;14.30;99.90;;;;;;5024438;28;20164;-85
2022/09/22 08:00:20;;;;;;;14.90;5.20;;;14.50;99.90;;;;;;5020016;28;20223;-82
2022/09/22 08:02:54;;;;;;;8.43;4.60;;;14.60;99.90;;;;;;5012692;28;20181;-80
2022/09/22 08:05:23;;;;;;;7.40;4.50;;;14.80;99.90;;;;;;5008521;28;20253;-90
2022/09/22 08:07:49;;;;;;;8.90;4.50;;;14.80;99.90;;;;;;4993820;28;20177;-87
2022/09/22 08:10:16;;;;;;;18.50;5.43;;;15.00;99.90;;;;;;4993422;28;20177;-86
2022/09/22 08:12:42;;;;;;;7.22;3.92;;;14.90;99.90;;;;;;5007262;28;20227;-93
2022/09/22 08:15:09;;;;;;;8.05;3.58;;;15.10;99.90;;;;;;5012332;28;20772;-89
2022/09/22 08:17:34;;;;;;;9.07;4.45;;;15.20;99.90;;;;;;5022391;28;20176;-84
2022/09/22 08:20:02;;;;;;;7.53;4.22;;;15.30;99.90;;;;;;5001013;28;20181;-85
2022/09/22 08:22:28;;;;;;;10.63;4.65;;;15.50;99.90;;;;;;5003086;28;20168;-82
2022/09/22 08:24:53;;;;;;;11.43;3.63;;;15.60;99.90;;;;;;5012139;28;20256;-91
2022/09/22 08:27:19;;;;;;;7.72;3.03;;;15.70;99.90;;;;;;5008522;28;20229;-83
2022/09/22 08:29:45;;;;;;;8.75;3.50;;;15.90;99.90;;;;;;5016566;28;20165;-84
2022/09/22 08:32:11;;;;;;;5.85;3.03;;;15.90;99.90;;;;;;5006815;28;20161;-88
2022/09/22 08:34:37;;;;;;;6.45;3.25;;;16.20;99.90;;;;;;4997973;28;20216;-84
2022/09/22 08:37:03;;;;;;;5.18;2.88;;;16.10;99.90;;;;;;5000102;28;20185;-88
2022/09/22 08:39:29;;;;;;;7.70;3.33;;;16.10;99.90;;;;;;5016476;28;20164;-88
2022/09/22 08:42:21;;;;;;;4.22;3.00;;;16.20;99.90;;;;;;5009677;28;20514;-83
2022/09/22 08:45:20;;;;;;;13.52;3.03;;;16.40;99.90;;;;;;4997045;28;20231;-85
2022/09/22 08:53:47;;;;;;;3.38;2.47;;;16.60;99.90;;;;;;4978154;28;20240;-92
2022/09/22 08:56:39;;;;;;;6.45;3.03;;;16.80;99.90;;;;;;4993354;28;20176;-83
2022/09/22 08:59:21;;;;;;;7.35;3.15;;;17.00;99.90;;;;;;5018197;28;20164;-87
2022/09/22 09:02:25;;;;;;;7.03;3.08;;;17.20;99.90;;;;;;5012840;28;20166;-83
2022/09/22 09:05:31;;;;;;;15.70;3.38;;;17.40;99.90;;;;;;5013118;28;20192;-85
2022/09/22 09:08:35;;;;;;;11.50;3.35;;;17.60;99.90;;;;;;5012194;28;20190;-90
2022/09/22 09:11:12;;;;;;;3.22;2.40;;;17.60;99.90;;;;;;4995682;28;20173;-86
2022/09/22 09:14:02;;;;;;;5.10;1.75;;;17.50;99.90;;;;;;4996507;28;20185;-86
2022/09/22 09:16:44;;;;;;;5.70;2.22;;;17.30;99.90;;;;;;5004725;28;20225;-90
2022/09/22 09:19:28;;;;;;;12.85;1.77;;;17.40;99.90;;;;;;5004711;28;20175;-80
2022/09/22 09:22:00;;;;;;;4.70;1.40;;;17.50;99.90;;;;;;5006272;28;20174;-93
2022/09/22 09:24:31;;;;;;;3.42;1.67;;;17.60;99.90;;;;;;4996735;28;20189;-80
2022/09/22 09:27:03;;;;;;;1.90;1.70;;;17.60;99.90;;;;;;4995928;28;20161;-80
2022/09/22 09:29:32;;;;;;;2.67;1.80;;;17.70;99.90;;;;;;4996107;28;20620;-80
2022/09/22 09:32:01;;;;;;;4.97;1.85;;;17.90;99.90;;;;;;4995884;28;20625;-80
2022/09/22 09:34:27;;;;;;;5.88;1.63;;;17.60;99.90;;;;;;4996030;28;20208;-80
2022/09/22 09:37:12;;;;;;;6.32;1.50;;;17.60;99.90;;;;;;4996153;28;20192;-84
2022/09/22 09:39:40;;;;;;;3.15;1.98;;;17.90;99.90;;;;;;4994969;28;20192;-80
2022/09/22 09:42:22;;;;;;;4.32;2.17;;;18.10;99.90;;;;;;4995447;28;20165;-80
2022/09/22 09:44:52;;;;;;;4.88;1.83;;;18.10;99.90;;;;;;4995629;28;20221;-81
2022/09/22 09:47:55;;;;;;;7.38;1.80;;;18.20;99.90;;;;;;4995754;28;20204;-81
2022/09/22 09:50:22;;;;;;;8.32;2.00;;;18.10;99.90;;;;;;4997591;28;20223;-80
2022/09/22 09:52:48;;;;;;;5.18;2.20;;;18.20;99.90;;;;;;4997525;28;20520;-81
2022/09/22 09:55:24;;;;;;;1.63;1.20;;;18.40;99.90;;;;;;4994879;28;20263;-88
2022/09/22 10:00:29;;;;;;;2.90;1.38;;;18.50;99.90;;;;;;4995944;28;20623;-89
2022/09/22 10:00:58;;;;;;;2.10;1.55;;;18.60;99.90;;;;;;4994995;28;20246;-80
2022/09/22 10:03:32;;;;;;;3.83;1.67;;;18.60;99.90;;;;;;4994957;28;20185;-81
2022/09/22 10:06:01;;;;;;;6.05;1.35;;;18.70;99.90;;;;;;4995793;28;20211;-86
2022/09/22 10:08:35;;;;;;;5.78;2.03;;;18.60;99.90;;;;;;4995391;28;20172;-83
2022/09/22 10:11:02;;;;;;;7.50;1.50;;;18.70;99.90;;;;;;4996581;28;20173;-80
2022/09/22 10:13:29;;;;;;;5.07;1.30;;;18.60;99.90;;;;;;4995652;28;20189;-85
2022/09/22 10:16:19;;;;;;;4.40;1.38;;;18.50;99.90;;;;;;4994931;28;20613;-92
2022/09/22 10:18:47;;;;;;;3.25;2.30;;;18.60;99.90;;;;;;4996991;28;20169;-90
2022/09/22 10:21:19;;;;;;;4.75;2.00;;;18.50;99.90;;;;;;4997010;28;20166;-80
2022/09/22 10:23:48;;;;;;;9.05;1.80;;;18.50;99.90;;;;;;4996580;28;20181;-80
2022/09/22 10:26:16;;;;;;;3.97;1.45;;;18.50;99.90;;;;;;4997003;28;20200;-79
2022/09/22 10:28:41;;;;;;;9.43;1.38;;;18.50;99.90;;;;;;4996401;28;20635;-80
2022/09/22 10:31:23;;;;;;;4.38;1.42;;;18.50;99.90;;;;;;4996553;28;20161;-80
2022/09/22 10:33:55;;;;;;;6.85;2.15;;;18.70;99.90;;;;;;4996689;28;20265;-81
2022/09/22 10:36:24;;;;;;;3.83;1.67;;;18.80;99.90;;;;;;4997233;28;20185;-79
2022/09/22 10:38:50;;;;;;;2.05;1.73;;;18.90;99.90;;;;;;5018443;28;20181;-79
2022/09/22 10:41:20;;;;;;;5.10;1.38;;;18.80;99.90;;;;;;5014705;28;20245;-79
2022/09/22 10:43:51;;;;;;;6.30;1.98;;;18.80;99.90;;;;;;5009943;28;20211;-79
2022/09/22 10:46:54;;;;;;;3.15;2.15;;;18.90;99.90;;;;;;4996581;28;20173;-81
2022/09/22 10:49:39;;;;;;;3.30;1.58;;;18.80;99.90;;;;;;4997157;28;20180;-79
2022/09/22 10:52:25;;;;;;;4.20;1.58;;;18.90;99.90;;;;;;4995269;28;20165;-79
2022/09/22 10:55:00;;;;;;;4.82;1.65;;;19.10;99.90;;;;;;4995992;28;20201;-80
2022/09/22 10:58:00;;;;;;;3.28;1.70;;;19.00;99.90;;;;;;4996516;28;20173;-77
2022/09/22 11:00:27;;;;;;;2.95;0.98;;;19.20;99.90;;;;;;4996742;28;20658;-82
2022/09/22 11:03:26;;;;;;;5.68;0.90;;;19.20;99.90;;;;;;4996522;28;20188;-79
2022/09/22 11:12:18;;;;;;;0.60;0.60;;;19.40;99.90;;;;;;4995822;28;20176;-79
2022/09/22 11:15:06;;;;;;;0.98;0.77;;;19.20;99.90;;;;;;4995147;28;20201;-80
2022/09/22 11:17:44;;;;;;;0.88;0.60;;;19.10;99.90;;;;;;4996242;28;20172;-84
2022/09/22 11:20:35;;;;;;;1.00;0.90;;;19.20;99.90;;;;;;4995546;28;20165;-81
2022/09/22 11:23:35;;;;;;;1.58;1.27;;;19.20;99.90;;;;;;4995672;28;20169;-80
2022/09/22 11:26:19;;;;;;;2.63;1.25;;;19.20;99.90;;;;;;4996205;28;20188;-81
2022/09/22 11:29:09;;;;;;;2.75;1.20;;;19.10;99.90;;;;;;4996815;28;20208;-80
2022/09/22 11:32:08;;;;;;;2.47;1.02;;;19.00;99.90;;;;;;4995548;28;20196;-80
2022/09/22 11:34:48;;;;;;;1.58;0.80;;;18.90;99.90;;;;;;4993431;28;20220;-79
2022/09/22 11:37:39;;;;;;;0.98;0.75;;;18.90;99.90;;;;;;4992008;28;20260;-78
2022/09/22 11:40:38;;;;;;;2.90;1.10;;;19.00;99.90;;;;;;4995245;28;20255;-83
2022/09/22 11:43:16;;;;;;;1.02;0.93;;;19.10;99.90;;;;;;4993388;28;20173;-83
2022/09/22 11:46:17;;;;;;;6.18;1.00;;;18.90;99.90;;;;;;4994120;28;20239;-84
2022/09/22 11:49:16;;;;;;;0.80;0.80;;;18.90;99.90;;;;;;4993909;28;20635;-87
2022/09/22 11:52:20;;;;;;;1.00;1.00;;;19.10;99.90;;;;;;4993123;28;20256;-84
2022/09/22 11:54:46;;;;;;;3.47;1.33;;;19.20;99.90;;;;;;5009459;28;20216;-84
2022/09/22 11:57:16;;;;;;;4.63;1.00;;;19.20;99.90;;;;;;4994911;28;20188;-84
2022/09/22 12:00:01;;;;;;;5.25;1.33;;;19.20;99.90;;;;;;4994790;28;20273;-82
2022/09/22 12:02:48;;;;;;;2.63;1.30;;;19.10;99.90;;;;;;4995874;28;20614;-80
2022/09/22 12:05:25;;;;;;;7.43;1.00;;;19.20;99.90;;;;;;4994857;28;20659;-79
2022/09/22 12:08:14;;;;;;;0.85;0.85;;;19.20;99.90;;;;;;4995947;28;20535;-85
2022/09/22 12:10:43;;;;;;;1.65;1.10;;;19.20;99.90;;;;;;4994403;28;20301;-81
2022/09/22 12:13:14;;;;;;;4.18;1.00;;;19.30;99.90;;;;;;4993256;28;20172;-79
2022/09/22 12:16:07;;;;;;;3.00;1.27;;;19.30;99.90;;;;;;4993094;28;20303;-83
2022/09/22 12:19:01;;;;;;;1.50;0.90;;;19.40;99.90;;;;;;4993425;28;20193;-80
2022/09/22 12:22:03;;;;;;;1.42;0.95;;;19.40;99.90;;;;;;4993225;28;20175;-82
2022/09/22 12:24:30;;;;;;;1.58;1.02;;;19.50;99.90;;;;;;4992106;28;20580;-80
2022/09/22 12:26:56;;;;;;;4.03;1.00;;;19.30;99.90;;;;;;4993355;28;20252;-85
2022/09/22 12:29:26;;;;;;;5.30;1.10;;;19.20;99.90;;;;;;4993222;28;20675;-80
2022/09/22 12:31:55;;;;;;;1.13;1.02;;;19.30;99.90;;;;;;4993154;28;20162;-79
2022/09/22 12:34:43;;;;;;;4.57;1.27;;;19.30;99.90;;;;;;4992687;28;20683;-79
2022/09/22 12:37:18;;;;;;;4.75;0.80;;;19.40;99.90;;;;;;4993399;28;20631;-79
2022/09/22 12:39:47;;;;;;;1.38;1.15;;;19.50;99.90;;;;;;4993294;28;20169;-79
2022/09/22 12:42:27;;;;;;;2.80;1.13;;;19.70;99.90;;;;;;4993389;28;20202;-79
2022/09/22 12:45:05;;;;;;;9.32;1.27;;;19.60;99.90;;;;;;4992953;28;20192;-84
2022/09/22 12:47:37;;;;;;;3.05;1.00;;;19.50;99.90;;;;;;4992876;28;20180;-80
2022/09/22 12:50:23;;;;;;;5.07;1.10;;;19.60;99.90;;;;;;4992934;28;20177;-79
2022/09/22 12:52:51;;;;;;;1.10;1.00;;;19.60;99.90;;;;;;4993227;28;20217;-79
2022/09/22 12:55:28;;;;;;;3.20;0.93;;;19.40;99.90;;;;;;4992708;28;20262;-79
2022/09/22 12:58:00;;;;;;;1.48;1.33;;;19.30;99.90;;;;;;4992949;28;20611;-79
2022/09/22 13:00:39;;;;;;;2.00;1.05;;;19.40;99.90;;;;;;4993303;28;20180;-79
2022/09/22 13:03:23;;;;;;;3.70;1.27;;;19.50;99.90;;;;;;4993276;28;20179;-80
2022/09/22 13:06:02;;;;;;;3.00;1.63;;;19.80;99.90;;;;;;4995481;28;20177;-79
2022/09/22 13:08:30;;;;;;;1.98;1.75;;;19.80;99.90;;;;;;5003568;28;20245;-80
2022/09/22 13:11:07;;;;;;;6.80;1.88;;;19.80;99.90;;;;;;5016911;28;20245;-79
2022/09/22 13:13:40;;;;;;;2.85;1.50;;;19.80;99.90;;;;;;4992985;28;20197;-91
2022/09/22 13:16:14;;;;;;;2.65;1.30;;;19.90;99.90;;;;;;4996398;28;20204;-79
2022/09/22 13:18:55;;;;;;;1.95;1.20;;;20.00;99.90;;;;;;4996130;28;20185;-79
2022/09/22 13:21:30;;;;;;;3.45;1.17;;;20.10;99.90;;;;;;5011518;28;20224;-79
2022/09/22 13:23:57;;;;;;;6.05;1.20;;;20.10;99.90;;;;;;5020420;28;20173;-79
2022/09/22 13:26:27;;;;;;;2.15;0.95;;;19.90;99.90;;;;;;5009501;28;20180;-81
2022/09/22 13:29:10;;;;;;;1.83;1.00;;;20.00;99.90;;;;;;5005025;28;20154;-79
2022/09/22 13:31:41;;;;;;;1.10;1.00;;;19.80;99.90;;;;;;5003748;28;20244;-79